Time;durP1;ratioP1;P1;durP2;ratioP2;P2;SDS_P1;SDS_P2;PMS_P1;PMS_P2;Temp;Humidity;BMP_temperature;BMP_pressure;BME280_temperature;BME280_humidity;BME280_pressure;Samples;Min_cycle;Max_cycle;Signal;HPM_P1;HPM_P2
2021/03/22 00:00:45;;;;;;;30.30;8.07;;;;;;;0.56;75.48;95873.16;5066855;28;20307;-75
2021/03/22 00:03:12;;;;;;;25.27;8.20;;;;;;;0.63;75.33;95888.16;5072114;28;20261;-75
2021/03/22 00:05:37;;;;;;;27.53;8.47;;;;;;;0.58;75.16;95878.16;5071823;28;20610;-75
2021/03/22 00:08:04;;;;;;;18.30;7.33;;;;;;;0.61;75.23;95880.56;5053511;28;20267;-74
2021/03/22 00:10:30;;;;;;;25.57;7.30;;;;;;;0.57;75.36;95871.41;5067527;28;20184;-75
2021/03/22 00:12:56;;;;;;;24.90;8.33;;;;;;;0.59;75.40;95872.16;5062321;28;20672;-75
2021/03/22 00:15:23;;;;;;;19.83;7.80;;;;;;;0.61;75.40;95866.97;5063929;28;20540;-75
2021/03/22 00:17:49;;;;;;;27.23;7.33;;;;;;;0.57;75.44;95868.84;5072989;28;20212;-75
2021/03/22 00:20:16;;;;;;;23.23;7.83;;;;;;;0.59;75.54;95858.56;5072078;28;20227;-74
2021/03/22 00:22:41;;;;;;;23.53;7.70;;;;;;;0.54;75.30;95862.19;5071989;28;20189;-75
2021/03/22 00:25:07;;;;;;;33.30;7.57;;;;;;;0.58;75.12;95867.94;5072850;28;20223;-74
2021/03/22 00:27:33;;;;;;;25.63;7.50;;;;;;;0.55;75.49;95860.44;5061090;28;20181;-74
2021/03/22 00:29:58;;;;;;;34.23;7.50;;;;;;;0.50;75.71;95865.78;5050361;28;20185;-75
2021/03/22 00:32:23;;;;;;;33.63;8.67;;;;;;;0.50;75.70;95860.69;5052928;28;20210;-75
2021/03/22 00:34:48;;;;;;;23.73;7.93;;;;;;;0.53;75.51;95862.22;5051686;28;20545;-74
2021/03/22 00:37:14;;;;;;;23.10;6.90;;;;;;;0.50;75.36;95868.34;5051463;28;20234;-75
2021/03/22 00:39:39;;;;;;;41.87;8.20;;;;;;;0.47;75.69;95870.25;5051712;28;20182;-75
2021/03/22 00:42:05;;;;;;;21.63;6.90;;;;;;;0.47;75.75;95875.34;5051703;28;20197;-75
2021/03/22 00:44:31;;;;;;;35.97;8.70;;;;;;;0.46;75.52;95868.59;5052461;28;20183;-75
2021/03/22 00:46:56;;;;;;;30.07;8.00;;;;;;;0.47;75.31;95880.47;5034954;28;20657;-75
2021/03/22 00:49:21;;;;;;;21.20;6.90;;;;;;;0.47;75.43;95870.25;5051593;28;20182;-75
2021/03/22 00:51:47;;;;;;;34.47;7.33;;;;;;;0.45;75.40;95867.75;5051256;28;20204;-75
2021/03/22 00:54:12;;;;;;;33.73;8.13;;;;;;;0.49;75.14;95873.53;5051285;28;20182;-75
2021/03/22 00:56:37;;;;;;;29.77;7.87;;;;;;;0.50;75.23;95876.00;5051192;28;20209;-75
2021/03/22 00:59:03;;;;;;;27.20;7.53;;;;;;;0.46;75.39;95866.03;5051433;28;20185;-75
2021/03/22 01:01:28;;;;;;;25.23;7.03;;;;;;;0.45;75.58;95856.72;5052450;28;20194;-75
2021/03/22 01:03:54;;;;;;;22.07;6.67;;;;;;;0.39;75.54;95857.03;5051297;28;20248;-75
2021/03/22 01:06:19;;;;;;;27.30;6.97;;;;;;;0.36;75.67;95862.31;5050950;28;20177;-75
2021/03/22 01:08:45;;;;;;;29.60;6.97;;;;;;;0.35;75.76;95865.72;5050937;28;20241;-75
2021/03/22 01:11:16;;;;;;;32.97;8.00;;;;;;;0.32;75.76;95856.50;5051973;28;20265;-75
2021/03/22 01:13:48;;;;;;;27.77;6.63;;;;;;;0.33;76.05;95850.50;5051024;28;20188;-75
2021/03/22 01:16:13;;;;;;;24.13;6.20;;;;;;;0.33;75.79;95842.81;5050757;28;20247;-75
2021/03/22 01:18:46;;;;;;;27.33;7.37;;;;;;;0.37;75.65;95844.34;5050584;28;20640;-75
2021/03/22 01:21:19;;;;;;;32.77;6.73;;;;;;;0.37;75.72;95838.41;5050966;28;20537;-75
2021/03/22 01:23:44;;;;;;;25.70;6.10;;;;;;;0.36;75.50;95832.47;5050930;28;20177;-75
2021/03/22 01:26:12;;;;;;;20.30;6.03;;;;;;;0.33;75.56;95839.44;5050611;28;20182;-75
2021/03/22 01:28:37;;;;;;;25.33;7.10;;;;;;;0.34;75.62;95841.09;5050840;28;20265;-75
2021/03/22 01:31:04;;;;;;;27.43;6.20;;;;;;;0.29;75.74;95836.25;5050605;28;20594;-75
2021/03/22 01:33:36;;;;;;;21.20;6.17;;;;;;;0.26;75.95;95826.97;5051991;28;20205;-75
2021/03/22 01:36:08;;;;;;;23.23;5.80;;;;;;;0.27;76.07;95826.09;5034549;28;20176;-75
2021/03/22 01:38:34;;;;;;;29.93;6.60;;;;;;;0.26;75.72;95837.19;5051812;28;20667;-75
2021/03/22 01:41:11;;;;;;;22.60;7.17;;;;;;;0.27;76.10;95836.31;5051899;28;20174;-75
2021/03/22 01:44:01;;;;;;;27.47;7.00;;;;;;;0.19;76.03;95835.06;5050358;28;20235;-75
2021/03/22 01:46:27;;;;;;;24.50;6.30;;;;;;;0.27;75.87;95835.50;5050021;28;20201;-74
2021/03/22 01:48:53;;;;;;;20.33;6.70;;;;;;;0.18;76.08;95841.91;5050504;28;20209;-74
2021/03/22 01:51:18;;;;;;;27.23;6.53;;;;;;;0.12;76.32;95831.97;5050284;28;20767;-75
2021/03/22 01:53:44;;;;;;;25.70;5.97;;;;;;;0.19;76.20;95835.06;5050347;28;20178;-75
2021/03/22 01:56:27;;;;;;;26.90;7.17;;;;;;;0.24;76.00;95828.78;5049871;28;20669;-75
2021/03/22 01:58:52;;;;;;;29.13;6.93;;;;;;;0.23;76.22;95822.03;5051677;28;20520;-75
2021/03/22 02:01:21;;;;;;;22.43;6.20;;;;;;;0.22;76.36;95825.50;5050319;28;20231;-75
2021/03/22 02:03:47;;;;;;;22.77;6.20;;;;;;;0.14;76.38;95824.25;5033563;28;20182;-75
2021/03/22 02:06:12;;;;;;;22.80;6.07;;;;;;;0.14;76.57;95819.97;5051234;28;20253;-75
2021/03/22 02:08:40;;;;;;;28.27;6.63;;;;;;;0.11;76.84;95822.66;5049917;28;20261;-74
2021/03/22 02:11:15;;;;;;;29.33;6.77;;;;;;;0.12;76.69;95823.50;5050088;28;20259;-75
2021/03/22 02:13:40;;;;;;;34.87;7.30;;;;;;;0.12;76.79;95821.78;5050323;28;20188;-75
2021/03/22 02:16:17;;;;;;;25.37;6.47;;;;;;;0.13;76.83;95825.16;5050003;28;20604;-75
2021/03/22 02:19:02;;;;;;;26.77;6.30;;;;;;;0.14;76.95;95827.63;5049831;28;20170;-75
2021/03/22 02:21:49;;;;;;;32.57;6.90;;;;;;;0.10;77.02;95823.59;5033357;28;20205;-74
2021/03/22 02:24:33;;;;;;;33.53;6.87;;;;;;;0.08;77.19;95821.97;5049994;28;20177;-75
2021/03/22 02:27:23;;;;;;;27.90;7.10;;;;;;;0.09;77.39;95821.06;5051183;28;20200;-75
2021/03/22 02:30:25;;;;;;;25.67;6.33;;;;;;;0.06;77.62;95819.50;5051332;28;20205;-74
2021/03/22 02:33:12;;;;;;;21.80;6.87;;;;;;;0.07;77.48;95821.16;5051161;28;20614;-75
2021/03/22 02:35:42;;;;;;;29.00;6.80;;;;;;;0.06;77.74;95819.50;5051018;28;20543;-75
2021/03/22 02:38:22;;;;;;;24.30;7.57;;;;;;;0.03;77.87;95822.22;5050039;28;20177;-75
2021/03/22 02:41:04;;;;;;;24.90;7.40;;;;;;;0.02;77.84;95823.13;5049998;28;20177;-75
2021/03/22 02:43:34;;;;;;;27.37;6.07;;;;;;;0.03;77.61;95827.34;5049864;28;20170;-75
2021/03/22 02:46:00;;;;;;;28.07;7.37;;;;;;;0.09;77.82;95834.69;5033125;28;20182;-75
2021/03/22 02:48:27;;;;;;;29.93;6.70;;;;;;;0.07;77.79;95831.38;5033337;28;20184;-75
2021/03/22 02:50:59;;;;;;;30.60;8.17;;;;;;;0.09;77.32;95837.25;5049870;28;20202;-74
2021/03/22 02:53:38;;;;;;;23.60;7.23;;;;;;;0.10;77.61;95832.97;5033052;28;20214;-75
2021/03/22 02:56:08;;;;;;;20.60;7.00;;;;;;;0.03;78.02;95832.44;5049599;28;20541;-75
2021/03/22 02:58:44;;;;;;;24.07;6.93;;;;;;;0.03;78.08;95834.19;5052299;28;20648;-75
2021/03/22 03:01:17;;;;;;;30.03;7.53;;;;;;;0.06;78.00;95831.47;5036823;28;20182;-75
2021/03/22 03:03:45;;;;;;;22.33;7.30;;;;;;;0.10;77.62;95831.25;5053872;28;20170;-74
2021/03/22 03:06:10;;;;;;;25.97;7.03;;;;;;;0.02;78.20;95841.00;5053328;28;20181;-75
2021/03/22 03:08:38;;;;;;;21.40;7.60;;;;;;;0.01;78.03;95829.16;5053418;28;20240;-74
2021/03/22 03:11:05;;;;;;;23.90;7.30;;;;;;;0.03;77.88;95829.06;5053329;28;20173;-74
2021/03/22 03:13:30;;;;;;;28.07;7.77;;;;;;;-0.01;77.99;95830.94;5054549;28;20210;-75
2021/03/22 03:15:56;;;;;;;26.23;7.60;;;;;;;-0.06;78.39;95832.91;5053103;28;20181;-75
2021/03/22 03:18:21;;;;;;;27.30;6.70;;;;;;;-0.05;78.46;95834.56;5052954;28;20203;-75
2021/03/22 03:20:46;;;;;;;27.43;6.80;;;;;;;-0.07;78.56;95839.75;5053057;28;20209;-75
2021/03/22 03:23:12;;;;;;;31.43;7.70;;;;;;;-0.12;78.26;95838.31;5053091;28;20192;-75
2021/03/22 03:25:38;;;;;;;25.73;6.57;;;;;;;-0.07;77.91;95838.91;5052893;28;20184;-75
2021/03/22 03:28:03;;;;;;;30.87;7.03;;;;;;;-0.10;77.88;95844.97;5036449;28;20205;-75
2021/03/22 03:30:32;;;;;;;28.00;6.97;;;;;;;-0.04;77.79;95846.41;5036373;28;20174;-75
2021/03/22 03:32:58;;;;;;;25.00;6.37;;;;;;;-0.06;77.82;95848.22;5052869;28;20236;-74
2021/03/22 03:35:26;;;;;;;28.30;6.40;;;;;;;-0.07;77.51;95849.94;5052568;28;20225;-75
2021/03/22 03:37:52;;;;;;;26.13;6.67;;;;;;;-0.10;77.74;95852.63;5052928;28;20625;-75
2021/03/22 03:40:24;;;;;;;22.73;5.97;;;;;;;-0.03;77.37;95855.72;5052854;28;20185;-75
2021/03/22 03:42:50;;;;;;;22.33;6.60;;;;;;;-0.05;77.50;95860.91;5052774;28;20294;-75
2021/03/22 03:45:16;;;;;;;20.97;6.13;;;;;;;-0.06;77.45;95855.88;5053771;28;20639;-75
2021/03/22 03:47:43;;;;;;;25.50;6.37;;;;;;;-0.11;77.35;95857.81;5053872;28;20267;-75
2021/03/22 03:50:12;;;;;;;31.87;5.97;;;;;;;-0.13;78.00;95859.63;5052742;28;20585;-75
2021/03/22 03:52:37;;;;;;;35.57;6.80;;;;;;;-0.09;77.54;95861.13;5052458;28;20216;-75
2021/03/22 03:55:05;;;;;;;27.07;7.33;;;;;;;-0.13;77.59;95862.19;5052427;28;20192;-74
2021/03/22 03:57:30;;;;;;;34.40;6.67;;;;;;;-0.11;77.63;95857.81;5052533;28;20205;-75
2021/03/22 03:59:55;;;;;;;24.33;5.83;;;;;;;-0.09;77.21;95864.53;5052591;28;20588;-74
2021/03/22 04:02:20;;;;;;;24.20;5.63;;;;;;;-0.13;77.49;95860.47;5052267;28;20193;-74
2021/03/22 04:04:46;;;;;;;23.03;5.60;;;;;;;-0.12;77.44;95861.28;5035455;28;20556;-75
2021/03/22 04:07:11;;;;;;;23.83;5.90;;;;;;;-0.15;77.62;95864.81;5052339;28;20280;-74
2021/03/22 04:09:36;;;;;;;26.87;6.07;;;;;;;-0.14;77.29;95858.00;5053554;28;20177;-75
2021/03/22 04:12:02;;;;;;;29.60;6.73;;;;;;;-0.14;77.40;95863.91;5052030;28;20315;-75
2021/03/22 04:14:28;;;;;;;19.77;6.50;;;;;;;-0.15;77.43;95856.34;5052016;28;20194;-75
2021/03/22 04:16:54;;;;;;;35.63;7.57;;;;;;;-0.17;77.56;95858.16;5053147;28;20242;-75
2021/03/22 04:19:19;;;;;;;32.40;7.03;;;;;;;-0.22;78.02;95866.00;5052102;28;20220;-75
2021/03/22 04:21:45;;;;;;;24.13;5.83;;;;;;;-0.22;78.10;95862.63;5052042;28;20200;-75
2021/03/22 04:24:11;;;;;;;27.50;6.07;;;;;;;-0.20;77.82;95863.38;5052125;28;20185;-75
2021/03/22 04:26:37;;;;;;;22.00;6.03;;;;;;;-0.22;77.70;95862.63;5051702;28;20185;-75
2021/03/22 04:29:02;;;;;;;24.70;6.17;;;;;;;-0.25;77.84;95855.13;5035149;28;20268;-75
2021/03/22 04:31:28;;;;;;;29.57;7.30;;;;;;;-0.20;77.93;95859.09;5035063;28;20636;-75
2021/03/22 04:33:54;;;;;;;26.10;6.07;;;;;;;-0.23;77.41;95858.44;5053092;28;20183;-75
2021/03/22 04:36:22;;;;;;;26.60;6.30;;;;;;;-0.26;77.66;95858.59;5051559;28;20551;-75
2021/03/22 04:38:47;;;;;;;25.77;6.60;;;;;;;-0.20;77.41;95855.72;5053011;28;20641;-75
2021/03/22 04:41:12;;;;;;;22.80;6.17;;;;;;;-0.21;77.17;95862.56;5051931;28;20184;-74
2021/03/22 04:43:38;;;;;;;22.50;5.97;;;;;;;-0.22;77.10;95863.47;5051598;28;20177;-75
2021/03/22 04:46:03;;;;;;;23.80;6.23;;;;;;;-0.26;77.46;95858.59;5052791;28;20556;-75
2021/03/22 04:48:29;;;;;;;22.53;6.30;;;;;;;-0.29;77.55;95867.19;5052785;28;20186;-75
2021/03/22 04:50:54;;;;;;;20.77;5.97;;;;;;;-0.30;77.45;95863.81;5051675;28;20183;-75
2021/03/22 04:53:20;;;;;;;22.50;5.87;;;;;;;-0.29;77.70;95872.31;5034948;28;20219;-75
2021/03/22 04:55:46;;;;;;;21.77;5.60;;;;;;;-0.28;77.41;95872.22;5051249;28;20199;-75
2021/03/22 04:58:11;;;;;;;22.03;6.50;;;;;;;-0.30;77.43;95874.03;5051315;28;20174;-75
2021/03/22 05:00:39;;;;;;;22.87;5.67;;;;;;;-0.31;77.46;95874.94;5051273;28;20182;-75
2021/03/22 05:03:07;;;;;;;23.73;5.73;;;;;;;-0.32;77.18;95867.38;5052368;28;20210;-75
2021/03/22 05:05:34;;;;;;;27.47;5.63;;;;;;;-0.30;77.62;95874.03;5051046;28;20525;-74
2021/03/22 05:08:00;;;;;;;22.27;6.03;;;;;;;-0.30;77.40;95876.59;5051278;28;20596;-75
2021/03/22 05:10:28;;;;;;;19.87;6.17;;;;;;;-0.31;77.19;95882.59;5051206;28;20208;-75
2021/03/22 05:12:53;;;;;;;26.40;5.90;;;;;;;-0.32;77.77;95886.06;5050752;28;20209;-75
2021/03/22 05:15:18;;;;;;;26.67;6.23;;;;;;;-0.32;77.62;95875.84;5052109;28;20178;-75
2021/03/22 05:17:44;;;;;;;23.73;6.37;;;;;;;-0.29;77.57;95879.97;5050780;28;20184;-75
2021/03/22 05:20:15;;;;;;;24.60;5.17;;;;;;;-0.29;77.56;95870.59;5050953;28;20178;-75
2021/03/22 05:22:41;;;;;;;21.40;5.53;;;;;;;-0.28;77.46;95873.97;5050326;28;20690;-75
2021/03/22 05:25:06;;;;;;;19.87;5.33;;;;;;;-0.34;77.77;95892.97;5052382;28;20363;-75
2021/03/22 05:27:32;;;;;;;30.20;5.83;;;;;;;-0.35;77.58;95896.41;5052296;28;20181;-75
2021/03/22 05:29:57;;;;;;;21.93;4.97;;;;;;;-0.32;77.79;95898.81;5050867;28;20173;-75
2021/03/22 05:32:25;;;;;;;17.50;5.83;;;;;;;-0.31;77.49;95900.47;5050612;28;20236;-75
2021/03/22 05:34:51;;;;;;;27.27;7.90;;;;;;;-0.31;77.49;95892.81;5050757;28;20219;-75
2021/03/22 05:37:16;;;;;;;34.57;10.37;;;;;;;-0.30;77.38;95891.91;5050482;28;20205;-75
2021/03/22 05:39:41;;;;;;;23.10;7.23;;;;;;;-0.26;77.75;95889.22;5050846;28;20191;-74
2021/03/22 05:42:23;;;;;;;26.40;9.30;;;;;;;-0.25;77.45;95888.31;5050569;28;20203;-75
2021/03/22 05:44:55;;;;;;;31.00;8.80;;;;;;;-0.25;77.56;95895.97;5050498;28;20185;-75
2021/03/22 05:47:24;;;;;;;27.47;6.00;;;;;;;-0.25;77.18;95903.63;5050511;28;20174;-74
2021/03/22 05:50:04;;;;;;;23.37;5.80;;;;;;;-0.28;77.29;95897.75;5050377;28;20232;-75
2021/03/22 05:53:03;;;;;;;24.37;6.83;;;;;;;-0.22;77.46;95900.91;5050402;28;20275;-75
2021/03/22 05:55:28;;;;;;;23.73;5.93;;;;;;;-0.19;77.52;95909.25;5040638;28;20651;-76
2021/03/22 05:58:33;;;;;;;24.63;5.57;;;;;;;-0.19;77.41;95903.31;5068846;28;20215;-75
2021/03/22 06:01:35;;;;;;;24.90;6.03;;;;;;;-0.17;76.94;95914.31;5058315;28;20252;-75
2021/03/22 06:04:04;;;;;;;32.80;8.37;;;;;;;-0.16;77.08;95924.44;5072137;28;20207;-74
2021/03/22 06:06:41;;;;;;;32.23;6.30;;;;;;;-0.18;76.96;95922.84;5066085;28;20264;-75
2021/03/22 06:09:46;;;;;;;19.70;6.10;;;;;;;-0.17;77.19;95922.78;5060152;28;20580;-74
2021/03/22 06:12:48;;;;;;;23.63;5.43;;;;;;;-0.16;77.22;95924.44;5069939;28;20265;-75
2021/03/22 06:15:20;;;;;;;28.93;4.97;;;;;;;-0.13;76.51;95928.56;5065283;28;20191;-75
2021/03/22 06:18:12;;;;;;;19.40;5.13;;;;;;;-0.13;77.41;95931.94;5049882;28;20544;-76
2021/03/22 06:20:39;;;;;;;19.00;4.83;;;;;;;-0.13;76.94;95926.00;5063777;28;20203;-75
2021/03/22 06:23:21;;;;;;;26.20;5.43;;;;;;;-0.11;76.86;95924.19;5072849;28;20187;-76
2021/03/22 06:25:47;;;;;;;18.23;5.13;;;;;;;-0.02;76.60;95926.31;5065136;28;20203;-75
2021/03/22 06:28:17;;;;;;;23.97;5.53;;;;;;;-0.03;76.73;95940.81;5071175;28;20660;-76
2021/03/22 06:30:55;;;;;;;25.43;5.77;;;;;;;-0.03;76.89;95937.41;5071288;28;20181;-76
2021/03/22 06:33:28;;;;;;;19.83;5.43;;;;;;;0.04;76.75;95938.78;5070373;28;20200;-75
2021/03/22 06:35:54;;;;;;;26.00;6.27;;;;;;;0.10;76.49;95938.50;5073109;28;20162;-75
2021/03/22 06:38:19;;;;;;;19.37;5.70;;;;;;;0.12;76.49;95933.31;5075044;28;20672;-75
2021/03/22 06:40:44;;;;;;;23.53;5.30;;;;;;;0.09;75.84;95926.63;5057303;28;20184;-75
2021/03/22 06:43:16;;;;;;;23.57;4.47;;;;;;;0.16;75.27;95927.97;5073831;28;20189;-75
2021/03/22 06:45:50;;;;;;;13.03;4.40;;;;;;;0.15;74.99;95935.69;5073485;28;20267;-75
2021/03/22 06:48:29;;;;;;;22.53;4.83;;;;;;;0.13;75.13;95933.22;5073728;28;20549;-75
2021/03/22 06:51:15;;;;;;;22.30;5.67;;;;;;;0.18;74.49;95935.56;5073779;28;20672;-75
2021/03/22 06:53:47;;;;;;;24.97;4.90;;;;;;;0.05;74.61;95937.88;5057025;28;20205;-75
2021/03/22 06:56:18;;;;;;;19.43;4.33;;;;;;;0.06;74.25;95946.38;5073370;28;20173;-75
2021/03/22 06:58:44;;;;;;;19.50;5.10;;;;;;;0.08;74.68;95944.56;5074718;28;20187;-75
2021/03/22 07:01:21;;;;;;;22.33;5.37;;;;;;;0.09;75.06;95946.22;5056599;28;20721;-75
2021/03/22 07:03:47;;;;;;;16.60;5.30;;;;;;;0.11;75.45;95952.09;5073587;28;20177;-75
2021/03/22 07:06:21;;;;;;;16.60;4.53;;;;;;;0.14;75.11;95962.16;5050609;28;20211;-75
2021/03/22 07:08:47;;;;;;;27.70;5.03;;;;;;;0.16;75.18;95957.78;5056642;28;20173;-75
2021/03/22 07:11:21;;;;;;;19.27;5.97;;;;;;;0.17;75.34;95961.97;5071298;28;20662;-74
2021/03/22 07:13:57;;;;;;;21.73;5.67;;;;;;;0.26;75.29;95966.66;5071021;28;20193;-74
2021/03/22 07:16:25;;;;;;;27.93;5.40;;;;;;;0.30;74.94;95963.06;5053089;28;20185;-75
2021/03/22 07:19:05;;;;;;;23.03;4.80;;;;;;;0.19;75.00;95965.31;5073145;28;20230;-74
2021/03/22 07:21:32;;;;;;;24.40;5.40;;;;;;;0.30;74.17;95959.69;5066030;28;20200;-75
2021/03/22 07:24:14;;;;;;;22.27;4.93;;;;;;;0.35;74.58;95963.63;5073550;28;20591;-75
2021/03/22 07:26:52;;;;;;;18.70;5.57;;;;;;;0.45;74.41;95958.94;5073082;28;20181;-75
2021/03/22 07:29:26;;;;;;;21.23;5.20;;;;;;;0.47;73.94;95965.59;5072870;28;20173;-75
2021/03/22 07:32:07;;;;;;;19.73;4.50;;;;;;;0.54;73.62;95966.97;5074978;28;20209;-75
2021/03/22 07:34:42;;;;;;;21.77;4.83;;;;;;;0.51;73.32;95969.66;5075027;28;20652;-75
2021/03/22 07:37:34;;;;;;;19.00;4.33;;;;;;;0.44;73.59;95976.00;5076056;28;20179;-75
2021/03/22 07:40:20;;;;;;;16.00;4.83;;;;;;;0.57;73.24;95976.19;5057944;28;20270;-75
2021/03/22 07:43:04;;;;;;;23.80;7.70;;;;;;;0.60;73.31;95975.19;5074401;28;20197;-75
2021/03/22 07:45:35;;;;;;;21.17;4.97;;;;;;;0.63;73.13;95983.56;5073938;28;20169;-76
2021/03/22 07:48:15;;;;;;;17.40;5.17;;;;;;;0.61;72.66;95984.53;5074658;28;20185;-75
2021/03/22 07:51:12;;;;;;;19.57;4.50;;;;;;;0.59;72.89;95976.09;5074617;28;20659;-75
2021/03/22 07:53:46;;;;;;;15.87;4.13;;;;;;;0.68;72.91;95976.47;5074449;28;20575;-74
2021/03/22 07:56:25;;;;;;;11.40;4.90;;;;;;;0.82;72.41;95978.34;5069860;28;20185;-75
2021/03/22 07:59:15;;;;;;;22.77;5.67;;;;;;;1.07;71.74;95977.91;5037683;28;20741;-75
2021/03/22 08:02:21;;;;;;;23.60;5.27;;;;;;;1.16;71.61;95986.84;5053895;28;20206;-74
2021/03/22 08:04:50;;;;;;;18.70;4.87;;;;;;;1.25;71.27;95987.19;5053084;28;20166;-74
2021/03/22 08:07:47;;;;;;;23.50;5.17;;;;;;;1.36;71.37;95987.44;5052401;28;20166;-74
2021/03/22 08:10:34;;;;;;;13.47;4.57;;;;;;;1.37;70.38;95993.38;5052132;28;20180;-75
2021/03/22 08:13:15;;;;;;;16.33;4.77;;;;;;;1.37;70.07;95996.78;5057157;28;20257;-75
2021/03/22 08:16:08;;;;;;;20.37;4.47;;;;;;;1.44;69.58;96007.53;5062630;28;20637;-74
2021/03/22 08:18:44;;;;;;;15.80;4.60;;;;;;;1.48;69.77;96003.88;5063521;28;20184;-74
2021/03/22 08:21:23;;;;;;;19.63;4.97;;;;;;;1.17;70.00;96006.41;5060453;28;20182;-74
2021/03/22 08:24:11;;;;;;;22.10;5.47;;;;;;;1.37;70.22;96007.00;5062111;28;20540;-74
2021/03/22 08:26:48;;;;;;;16.90;4.73;;;;;;;1.39;70.06;96017.16;5065113;28;20191;-75
2021/03/22 08:29:17;;;;;;;20.03;4.60;;;;;;;1.40;70.56;96011.94;5071846;28;20181;-74
2021/03/22 08:31:50;;;;;;;22.70;5.30;;;;;;;1.48;70.25;96013.28;5070830;28;20201;-74
2021/03/22 08:34:19;;;;;;;17.27;4.53;;;;;;;1.48;69.98;96024.34;5071706;28;20264;-75
2021/03/22 08:37:05;;;;;;;15.20;4.43;;;;;;;1.58;69.87;96025.50;5071655;28;20251;-75
2021/03/22 08:39:51;;;;;;;19.73;4.60;;;;;;;1.62;69.07;96033.88;5073032;28;20177;-74
2021/03/22 08:42:24;;;;;;;16.03;4.57;;;;;;;1.66;69.24;96032.78;5052755;28;20277;-74
2021/03/22 08:45:03;;;;;;;16.63;4.63;;;;;;;1.69;69.25;96033.47;5051380;28;20176;-74
2021/03/22 08:47:47;;;;;;;19.70;4.77;;;;;;;1.68;69.30;96031.00;5051580;28;20185;-75
2021/03/22 08:50:14;;;;;;;13.70;4.57;;;;;;;1.64;69.45;96034.63;5051688;28;20173;-74
2021/03/22 08:52:47;;;;;;;12.43;4.20;;;;;;;1.87;68.68;96034.22;5051296;28;20277;-75
2021/03/22 08:55:17;;;;;;;25.07;4.80;;;;;;;1.63;68.48;96038.91;5052230;28;20653;-74
2021/03/22 08:58:02;;;;;;;22.53;5.17;;;;;;;2.05;69.37;96041.81;5060748;28;20177;-74
2021/03/22 09:00:37;;;;;;;17.90;5.00;;;;;;;1.93;68.78;96036.44;5066180;28;20211;-74
2021/03/22 09:03:15;;;;;;;14.27;4.93;;;;;;;2.07;67.79;96032.31;5069362;28;20283;-74
2021/03/22 09:06:06;;;;;;;14.57;4.87;;;;;;;2.43;67.39;96039.69;5069106;28;20187;-75
2021/03/22 09:08:42;;;;;;;16.10;4.80;;;;;;;2.56;66.21;96040.63;5057109;28;20186;-74
2021/03/22 09:11:21;;;;;;;15.67;4.10;;;;;;;2.63;65.50;96038.56;5052642;28;20192;-74
2021/03/22 09:14:04;;;;;;;10.53;4.10;;;;;;;2.50;64.54;96041.00;5052461;28;20575;-74
2021/03/22 09:16:38;;;;;;;11.57;4.40;;;;;;;2.54;64.62;96040.72;5068069;28;20181;-75
2021/03/22 09:19:14;;;;;;;11.77;3.33;;;;;;;2.66;64.05;96043.53;5059179;28;20599;-75
2021/03/22 09:21:46;;;;;;;17.07;4.10;;;;;;;2.82;64.15;96045.09;5068711;28;20228;-74
2021/03/22 09:24:36;;;;;;;10.20;3.30;;;;;;;2.97;63.69;96045.97;5065229;28;20719;-74
2021/03/22 09:27:15;;;;;;;11.67;3.60;;;;;;;3.17;62.41;96047.34;5057772;28;20185;-74
2021/03/22 09:30:14;;;;;;;13.20;4.33;;;;;;;2.88;64.11;96046.50;5060192;28;20226;-73
2021/03/22 09:32:44;;;;;;;10.47;4.10;;;;;;;3.11;63.25;96048.56;5070052;28;20209;-75
2021/03/22 09:35:13;;;;;;;20.13;4.47;;;;;;;2.96;63.73;96058.88;5049638;28;20186;-74
2021/03/22 09:38:01;;;;;;;8.83;3.17;;;;;;;2.83;63.90;96056.22;5051730;28;20181;-75
2021/03/22 09:40:27;;;;;;;10.37;2.87;;;;;;;2.65;63.17;96062.34;5051721;28;20194;-75
2021/03/22 09:43:05;;;;;;;12.33;3.33;;;;;;;2.61;62.99;96060.91;5058483;28;20189;-74
2021/03/22 09:45:53;;;;;;;11.60;3.50;;;;;;;2.46;64.62;96055.69;5069068;28;20184;-75
2021/03/22 09:48:34;;;;;;;17.10;4.27;;;;;;;2.43;64.75;96055.88;5035967;28;20570;-75
2021/03/22 09:51:03;;;;;;;12.93;3.83;;;;;;;2.56;64.68;96061.13;5068269;28;20179;-74
2021/03/22 09:53:54;;;;;;;12.43;3.77;;;;;;;3.00;64.21;96058.59;5051493;28;20212;-74
2021/03/22 09:56:43;;;;;;;14.23;4.37;;;;;;;3.17;62.42;96064.50;5051136;28;20174;-74
2021/03/22 09:59:30;;;;;;;15.43;4.43;;;;;;;3.53;62.01;96064.06;5033677;28;20209;-75
2021/03/22 10:02:02;;;;;;;13.10;3.63;;;;;;;3.69;61.14;96063.03;5057868;28;20220;-75
2021/03/22 10:04:30;;;;;;;13.20;3.40;;;;;;;3.84;60.52;96061.28;5053361;28;20181;-75
2021/03/22 10:07:02;;;;;;;9.67;2.87;;;;;;;3.74;60.43;96065.34;5046408;28;20174;-74
2021/03/22 10:09:44;;;;;;;9.40;3.17;;;;;;;3.52;60.51;96063.22;5051490;28;20214;-75
2021/03/22 10:12:11;;;;;;;8.50;3.27;;;;;;;3.52;60.71;96068.38;5055986;28;20522;-74
2021/03/22 10:14:39;;;;;;;9.53;3.07;;;;;;;3.22;61.42;96071.03;5063523;28;20932;-75
2021/03/22 10:17:05;;;;;;;10.00;3.00;;;;;;;3.24;61.24;96078.63;5068102;28;20182;-75
2021/03/22 10:19:36;;;;;;;12.30;3.73;;;;;;;2.93;61.54;96082.16;5070203;28;20667;-74
2021/03/22 10:22:13;;;;;;;13.17;4.07;;;;;;;2.71;63.34;96074.84;5069628;28;20282;-75
2021/03/22 10:25:12;;;;;;;11.37;3.40;;;;;;;2.71;63.17;96078.22;5068101;28;20186;-74
2021/03/22 10:27:39;;;;;;;13.33;3.47;;;;;;;2.86;63.22;96073.16;5067612;28;20222;-74
2021/03/22 10:30:16;;;;;;;9.30;3.30;;;;;;;2.92;62.55;96071.06;5052879;28;20182;-74
2021/03/22 10:33:02;;;;;;;10.37;3.47;;;;;;;2.77;62.67;96074.50;5059767;28;20212;-75
2021/03/22 10:35:38;;;;;;;9.20;4.00;;;;;;;2.83;63.01;96076.72;5066269;28;20571;-74
2021/03/22 10:38:03;;;;;;;13.37;4.33;;;;;;;2.74;63.18;96074.66;5066598;28;20288;-75
2021/03/22 10:40:32;;;;;;;10.90;3.43;;;;;;;2.65;62.52;96080.31;5063176;28;20281;-74
2021/03/22 10:42:58;;;;;;;9.03;2.37;;;;;;;2.62;62.03;96077.94;5067566;28;20628;-74
2021/03/22 10:45:23;;;;;;;11.57;3.77;;;;;;;2.44;63.47;96078.03;5066147;28;20187;-74
2021/03/22 10:47:52;;;;;;;9.67;3.97;;;;;;;2.54;63.12;96074.06;5064333;28;20181;-75
2021/03/22 10:50:22;;;;;;;13.70;3.43;;;;;;;2.54;63.07;96073.22;5048160;28;20550;-75
2021/03/22 10:53:08;;;;;;;18.07;6.73;;;;;;;2.51;63.99;96081.09;5061570;28;20198;-74
2021/03/22 10:55:37;;;;;;;12.57;5.73;;;;;;;2.60;64.52;96079.75;5059575;28;20555;-74
2021/03/22 10:58:05;;;;;;;10.63;3.67;;;;;;;2.58;64.24;96084.16;5063838;28;20209;-74
2021/03/22 11:00:39;;;;;;;7.13;3.70;;;;;;;2.50;64.23;96087.97;5068296;28;20177;-75
2021/03/22 11:03:05;;;;;;;13.40;4.53;;;;;;;2.54;65.03;96078.34;5064815;28;20186;-74
2021/03/22 11:05:51;;;;;;;10.00;4.30;;;;;;;2.51;65.04;96079.34;5058363;28;20185;-74
2021/03/22 11:08:27;;;;;;;12.97;3.93;;;;;;;2.42;64.43;96077.31;5067381;28;20189;-74
2021/03/22 11:11:06;;;;;;;12.30;3.60;;;;;;;2.39;64.30;96084.34;5049638;28;20242;-75
2021/03/22 11:13:35;;;;;;;13.10;4.10;;;;;;;2.41;64.41;96088.47;5057111;28;20285;-74
2021/03/22 11:16:01;;;;;;;9.23;4.33;;;;;;;2.55;65.07;96080.81;5040692;28;20181;-74
2021/03/22 11:18:28;;;;;;;15.37;4.13;;;;;;;2.30;65.10;96080.56;5051899;28;20192;-75
2021/03/22 11:20:54;;;;;;;12.97;4.07;;;;;;;2.52;64.80;96086.13;5053973;28;20178;-75
2021/03/22 11:23:27;;;;;;;8.93;4.10;;;;;;;2.44;65.37;96083.16;5070462;28;20275;-75
2021/03/22 11:25:58;;;;;;;9.50;4.00;;;;;;;2.43;65.22;96086.66;5072794;28;20177;-74
2021/03/22 11:28:29;;;;;;;9.03;4.30;;;;;;;2.51;64.41;96079.34;5057435;28;20177;-74
2021/03/22 11:30:55;;;;;;;7.80;3.70;;;;;;;2.50;65.27;96082.84;5057941;28;20657;-74
2021/03/22 11:33:27;;;;;;;9.03;3.77;;;;;;;2.54;64.68;96078.34;5064285;28;20207;-74
2021/03/22 11:36:04;;;;;;;7.77;3.60;;;;;;;2.52;64.91;96082.75;5055907;28;20192;-75
2021/03/22 11:38:34;;;;;;;13.13;3.80;;;;;;;2.71;64.79;96079.97;5063146;28;20317;-75
2021/03/22 11:41:00;;;;;;;10.13;4.00;;;;;;;2.81;63.64;96081.09;5046204;28;20269;-74
2021/03/22 11:43:25;;;;;;;12.60;4.00;;;;;;;2.84;63.56;96079.19;5053546;28;20222;-74
2021/03/22 11:45:50;;;;;;;9.97;4.00;;;;;;;2.94;64.03;96076.94;5073468;28;20181;-74
2021/03/22 11:48:21;;;;;;;9.93;3.50;;;;;;;3.01;64.40;96080.81;5065291;28;20608;-75
2021/03/22 11:51:02;;;;;;;7.20;3.93;;;;;;;3.21;64.33;96076.25;5053587;28;20192;-74
2021/03/22 11:53:29;;;;;;;11.37;4.10;;;;;;;3.07;63.68;96070.16;5069768;28;20215;-74
2021/03/22 11:56:14;;;;;;;11.33;4.73;;;;;;;3.20;64.16;96077.16;5067437;28;20201;-74